createdAt,value
2023-05-09T00:00:55.843Z,2.88
2023-05-09T00:03:22.460Z,2.85
2023-05-09T00:05:49.170Z,2.83
2023-05-09T00:08:15.717Z,2.81
2023-05-09T00:10:43.995Z,2.81
2023-05-09T00:13:12.229Z,2.81
2023-05-09T00:15:39.040Z,2.79
2023-05-09T00:18:05.874Z,2.80
2023-05-09T00:20:34.052Z,2.80
2023-05-09T00:23:00.736Z,2.78
2023-05-09T00:25:27.445Z,2.76
2023-05-09T00:27:53.993Z,2.74
2023-05-09T00:30:20.552Z,2.71
2023-05-09T00:32:47.203Z,2.68
2023-05-09T00:35:14.140Z,2.65
2023-05-09T00:37:40.967Z,2.62
2023-05-09T00:40:09.219Z,2.60
2023-05-09T00:42:36.270Z,2.59
2023-05-09T00:45:03.112Z,2.56
2023-05-09T00:47:30.284Z,2.54
2023-05-09T00:49:58.119Z,2.52
2023-05-09T00:52:26.002Z,2.51
2023-05-09T00:54:55.929Z,2.47
2023-05-09T00:57:22.794Z,2.45
2023-05-09T00:59:49.564Z,2.43
2023-05-09T01:02:17.244Z,2.42
2023-05-09T01:04:44.519Z,2.40
2023-05-09T01:07:13.881Z,2.39
2023-05-09T01:09:43.465Z,2.39
2023-05-09T01:12:09.979Z,2.39
2023-05-09T01:14:55.428Z,2.38
2023-05-09T01:17:40.773Z,2.36
2023-05-09T01:20:19.459Z,2.33
2023-05-09T01:22:48.913Z,2.31
2023-05-09T01:25:36.610Z,2.26
2023-05-09T01:28:09.309Z,2.25
2023-05-09T01:30:37.814Z,2.22
2023-05-09T01:33:06.562Z,2.18
2023-05-09T01:35:35.869Z,2.17
2023-05-09T01:38:04.464Z,2.17
2023-05-09T01:40:33.658Z,2.17
2023-05-09T01:43:02.401Z,2.15
2023-05-09T01:45:29.437Z,2.13
2023-05-09T01:47:56.849Z,2.12
2023-05-09T01:50:24.109Z,2.10
2023-05-09T01:52:53.186Z,2.10
2023-05-09T01:55:21.596Z,2.08
2023-05-09T01:57:49.051Z,2.04
2023-05-09T02:00:16.606Z,2.02
2023-05-09T02:02:43.562Z,1.99
2023-05-09T02:05:11.865Z,1.99
2023-05-09T02:07:40.015Z,2.00
2023-05-09T02:10:07.676Z,1.99
2023-05-09T02:12:34.284Z,1.99
2023-05-09T02:15:01.078Z,2.02
2023-05-09T02:17:30.091Z,2.04
2023-05-09T02:19:57.017Z,2.07
2023-05-09T02:22:44.119Z,2.09
2023-05-09T02:25:11.605Z,2.11
2023-05-09T02:27:40.067Z,2.13
2023-05-09T02:30:08.904Z,2.17
2023-05-09T02:32:37.332Z,2.22
2023-05-09T02:35:04.700Z,2.27
2023-05-09T02:37:31.809Z,2.31
2023-05-09T02:39:58.511Z,2.36
2023-05-09T02:42:26.654Z,2.40
2023-05-09T02:44:53.797Z,2.43
2023-05-09T02:47:20.808Z,2.47
2023-05-09T02:49:47.974Z,2.55
2023-05-09T02:52:14.586Z,2.60
2023-05-09T02:54:41.302Z,2.65
2023-05-09T02:57:07.865Z,2.70
2023-05-09T02:59:34.435Z,2.75
2023-05-09T03:02:01.149Z,2.88
2023-05-09T03:04:27.826Z,3.00
2023-05-09T03:06:54.403Z,3.09
2023-05-09T03:09:20.969Z,3.13
2023-05-09T03:11:47.500Z,3.18
2023-05-09T03:14:14.963Z,3.24
2023-05-09T03:16:41.549Z,3.30
2023-05-09T03:19:08.643Z,3.38
2023-05-09T03:21:35.214Z,3.46
2023-05-09T03:24:01.972Z,3.53
2023-05-09T03:26:28.564Z,3.65
2023-05-09T03:28:55.267Z,3.75
2023-05-09T03:31:21.896Z,3.91
2023-05-09T03:33:48.462Z,4.19
2023-05-09T03:36:15.181Z,4.50
2023-05-09T03:38:41.791Z,4.81
2023-05-09T03:41:08.442Z,5.06
2023-05-09T03:43:34.980Z,5.29
2023-05-09T03:46:01.503Z,5.41
2023-05-09T03:48:28.112Z,5.52
2023-05-09T03:50:54.776Z,5.61
2023-05-09T03:53:21.343Z,5.72
2023-05-09T03:55:47.959Z,5.82
2023-05-09T03:58:14.929Z,5.93
2023-05-09T04:00:41.757Z,6.05
2023-05-09T04:03:08.440Z,6.12
2023-05-09T04:05:35.492Z,6.21
2023-05-09T04:08:02.660Z,6.27
2023-05-09T04:10:30.120Z,6.35
2023-05-09T04:12:56.946Z,6.45
2023-05-09T04:15:23.528Z,6.53
2023-05-09T04:17:50.189Z,6.64
2023-05-09T04:20:16.865Z,6.72
2023-05-09T04:22:45.357Z,6.79
2023-05-09T04:25:14.587Z,6.86
2023-05-09T04:27:41.657Z,6.97
2023-05-09T04:30:08.561Z,7.07
2023-05-09T04:32:35.884Z,7.19
2023-05-09T04:35:03.857Z,7.25
2023-05-09T04:37:31.734Z,7.37
2023-05-09T04:39:58.697Z,7.49
2023-05-09T04:42:25.764Z,7.57
2023-05-09T04:44:52.541Z,7.62
2023-05-09T04:47:19.077Z,7.68
2023-05-09T04:49:45.743Z,7.75
2023-05-09T04:52:12.486Z,7.84
2023-05-09T04:54:39.093Z,7.90
2023-05-09T04:57:17.200Z,7.93
2023-05-09T04:59:44.776Z,7.96
2023-05-09T05:02:11.454Z,8.03
2023-05-09T05:04:38.118Z,8.06
2023-05-09T05:07:05.313Z,8.17
2023-05-09T05:09:31.879Z,8.25
2023-05-09T05:12:02.351Z,8.30
2023-05-09T05:14:29.727Z,8.44
2023-05-09T05:16:56.345Z,8.48
2023-05-09T05:19:22.921Z,8.54
2023-05-09T05:21:49.468Z,8.60
2023-05-09T05:24:15.977Z,8.70
2023-05-09T05:26:42.564Z,8.76
2023-05-09T05:29:09.195Z,8.84
2023-05-09T05:31:36.441Z,8.91
2023-05-09T05:34:03.158Z,8.95
2023-05-09T05:36:29.695Z,8.94
2023-05-09T05:38:56.354Z,8.96
2023-05-09T05:41:23.495Z,8.92
2023-05-09T05:43:51.496Z,8.87
2023-05-09T05:46:19.493Z,8.84
2023-05-09T05:48:46.237Z,8.86
2023-05-09T05:51:12.856Z,8.94
2023-05-09T05:53:39.404Z,8.92
2023-05-09T05:56:06.093Z,8.96
2023-05-09T05:58:32.727Z,9.02
2023-05-09T06:00:59.228Z,9.08
2023-05-09T06:03:26.038Z,9.14
2023-05-09T06:05:52.865Z,9.14
2023-05-09T06:08:19.439Z,9.16
2023-05-09T06:10:46.077Z,9.22
2023-05-09T06:13:12.752Z,9.31
2023-05-09T06:15:39.376Z,9.34
2023-05-09T06:18:05.996Z,9.41
2023-05-09T06:20:32.883Z,9.49
2023-05-09T06:22:59.469Z,9.51
2023-05-09T06:25:25.985Z,9.53
2023-05-09T06:27:52.530Z,9.57
2023-05-09T06:30:26.295Z,9.64
2023-05-09T06:32:53.896Z,9.78
2023-05-09T06:35:20.674Z,9.87
2023-05-09T06:37:48.682Z,9.99
2023-05-09T06:40:15.860Z,10.04
2023-05-09T06:42:42.519Z,10.08
2023-05-09T06:45:09.298Z,10.22
2023-05-09T06:47:35.878Z,10.20
2023-05-09T06:50:02.531Z,10.22
2023-05-09T06:52:30.377Z,10.20
2023-05-09T06:54:56.987Z,10.23
2023-05-09T06:57:23.714Z,10.30
2023-05-09T06:59:50.729Z,10.39
2023-05-09T07:02:17.365Z,10.44
2023-05-09T07:04:43.948Z,10.48
2023-05-09T07:07:10.605Z,10.58
2023-05-09T07:09:37.270Z,10.64
2023-05-09T07:12:03.951Z,10.59
2023-05-09T07:14:30.538Z,10.56
2023-05-09T07:17:09.899Z,10.54
2023-05-09T07:19:43.609Z,10.54
2023-05-09T07:22:10.154Z,10.55
2023-05-09T07:24:36.764Z,10.61
2023-05-09T07:27:03.953Z,10.70
2023-05-09T07:29:30.526Z,10.80
2023-05-09T07:31:57.181Z,10.83
2023-05-09T07:34:25.484Z,10.84
2023-05-09T07:36:52.165Z,10.87
2023-05-09T07:39:18.805Z,10.95
2023-05-09T07:41:46.426Z,11.12
2023-05-09T07:44:15.313Z,11.25
2023-05-09T07:46:42.258Z,11.26
2023-05-09T07:49:08.842Z,11.24
2023-05-09T07:51:35.627Z,11.16
2023-05-09T07:54:02.308Z,11.20
2023-05-09T07:56:29.066Z,11.23
2023-05-09T07:58:55.987Z,11.26
2023-05-09T08:01:22.585Z,11.34
2023-05-09T08:03:49.566Z,11.41
2023-05-09T08:06:16.289Z,11.50
2023-05-09T08:08:42.925Z,11.58
2023-05-09T08:11:09.450Z,11.61
2023-05-09T08:13:36.272Z,11.80
2023-05-09T08:16:02.991Z,11.95
2023-05-09T08:18:29.685Z,11.98
2023-05-09T08:20:56.312Z,11.83
2023-05-09T08:23:22.868Z,11.80
2023-05-09T08:25:52.595Z,11.82
2023-05-09T08:28:19.254Z,11.83
2023-05-09T08:30:45.911Z,11.94
2023-05-09T08:33:12.542Z,11.78
2023-05-09T08:35:39.170Z,11.77
2023-05-09T08:38:05.804Z,11.76
2023-05-09T08:40:35.771Z,11.80
2023-05-09T08:43:03.309Z,11.78
2023-05-09T08:45:30.585Z,11.81
2023-05-09T08:47:57.194Z,11.83
2023-05-09T08:50:23.921Z,11.61
2023-05-09T08:52:51.607Z,11.57
2023-05-09T08:55:18.676Z,11.54
2023-05-09T08:57:45.859Z,11.63
2023-05-09T09:00:15.881Z,11.79
2023-05-09T09:02:43.884Z,12.01
2023-05-09T09:05:23.897Z,12.26
2023-05-09T09:07:56.826Z,12.52
2023-05-09T09:10:26.121Z,12.68
2023-05-09T09:12:57.580Z,12.82
2023-05-09T09:15:26.324Z,12.93
2023-05-09T09:17:56.572Z,13.09
2023-05-09T09:20:26.854Z,13.09
2023-05-09T09:22:55.618Z,13.04
2023-05-09T09:25:22.158Z,12.99
2023-05-09T09:27:48.758Z,13.02
2023-05-09T09:30:15.666Z,13.13
2023-05-09T09:32:42.462Z,13.35
2023-05-09T09:35:09.982Z,13.60
2023-05-09T09:37:37.435Z,13.86
2023-05-09T09:40:05.087Z,14.18
2023-05-09T09:42:40.548Z,14.45
2023-05-09T09:45:14.047Z,14.63
2023-05-09T09:47:44.481Z,14.74
2023-05-09T09:50:14.671Z,14.81
2023-05-09T09:52:48.928Z,14.74
2023-05-09T09:55:16.050Z,14.68
2023-05-09T09:57:45.755Z,14.58
2023-05-09T10:00:13.694Z,14.48
2023-05-09T10:02:47.366Z,14.03
2023-05-09T10:05:18.736Z,13.84
2023-05-09T10:07:45.374Z,13.85
2023-05-09T10:10:12.120Z,13.78
2023-05-09T10:12:40.034Z,14.12
2023-05-09T10:15:09.398Z,15.02
2023-05-09T10:17:36.232Z,16.11
2023-05-09T10:20:04.508Z,16.48
2023-05-09T10:22:32.765Z,16.44
2023-05-09T10:24:59.366Z,16.01
2023-05-09T10:27:27.627Z,15.69
2023-05-09T10:30:07.639Z,15.78
2023-05-09T10:32:39.430Z,16.75
2023-05-09T10:35:07.273Z,17.87
2023-05-09T10:37:34.074Z,18.93
2023-05-09T10:40:02.931Z,19.49
2023-05-09T10:42:31.374Z,20.05
2023-05-09T10:44:58.453Z,20.53
2023-05-09T10:47:28.133Z,20.22
2023-05-09T10:49:55.413Z,19.74
2023-05-09T10:52:22.818Z,18.98
2023-05-09T10:55:03.587Z,18.68
2023-05-09T10:57:32.181Z,18.09
2023-05-09T11:00:00.344Z,17.65
2023-05-09T11:02:29.584Z,17.32
2023-05-09T11:05:18.948Z,17.08
2023-05-09T11:07:45.558Z,16.84
2023-05-09T11:10:14.925Z,16.39
2023-05-09T11:12:57.519Z,16.06
2023-05-09T11:15:24.817Z,15.53
2023-05-09T11:18:05.564Z,15.35
2023-05-09T11:20:33.898Z,15.21
2023-05-09T11:23:01.208Z,15.17
2023-05-09T11:25:29.082Z,15.21
2023-05-09T11:28:00.204Z,15.19
2023-05-09T11:30:35.756Z,15.24
2023-05-09T11:33:02.353Z,16.20
2023-05-09T11:35:29.012Z,17.50
2023-05-09T11:38:01.360Z,18.78
2023-05-09T11:40:29.041Z,19.93
2023-05-09T11:42:58.590Z,20.96
2023-05-09T11:45:30.229Z,21.86
2023-05-09T11:47:57.666Z,22.06
2023-05-09T11:50:24.701Z,21.97
2023-05-09T11:52:51.432Z,22.07
2023-05-09T11:55:19.426Z,21.89
2023-05-09T11:57:51.244Z,21.42
2023-05-09T12:00:22.093Z,20.73
2023-05-09T12:02:49.458Z,19.51
2023-05-09T12:05:17.485Z,18.44
2023-05-09T12:07:44.680Z,17.63
2023-05-09T12:10:21.169Z,17.31
2023-05-09T12:12:48.922Z,16.51
2023-05-09T12:15:16.905Z,15.88
2023-05-09T12:17:44.566Z,15.48
2023-05-09T12:20:11.643Z,15.08
2023-05-09T12:22:38.197Z,15.05
2023-05-09T12:25:07.299Z,14.95
2023-05-09T12:27:38.886Z,15.03
2023-05-09T12:30:10.528Z,15.43
2023-05-09T12:32:39.649Z,15.88
2023-05-09T12:35:12.050Z,16.01
2023-05-09T12:37:39.255Z,15.92
2023-05-09T12:40:06.268Z,15.74
2023-05-09T12:42:33.640Z,15.53
2023-05-09T12:45:01.606Z,15.27
2023-05-09T12:47:30.233Z,15.09
2023-05-09T12:50:01.066Z,15.25
2023-05-09T12:52:41.709Z,15.79
2023-05-09T12:55:18.641Z,16.52
2023-05-09T12:57:56.831Z,16.39
2023-05-09T13:00:23.420Z,16.12
2023-05-09T13:02:51.000Z,15.92
2023-05-09T13:05:18.587Z,15.74
2023-05-09T13:07:46.510Z,15.56
2023-05-09T13:10:14.405Z,15.46
2023-05-09T13:12:45.111Z,15.24
2023-05-09T13:15:12.307Z,15.16
2023-05-09T13:17:39.051Z,14.98
2023-05-09T13:20:06.272Z,14.89
2023-05-09T13:22:33.266Z,14.84
2023-05-09T13:24:59.955Z,14.84
2023-05-09T13:27:27.925Z,14.87
2023-05-09T13:29:54.461Z,14.94
2023-05-09T13:32:21.133Z,14.93
2023-05-09T13:34:48.066Z,14.87
2023-05-09T13:37:14.628Z,15.21
2023-05-09T13:39:41.315Z,15.68
2023-05-09T13:42:08.105Z,15.86
2023-05-09T13:44:34.877Z,15.84
2023-05-09T13:47:01.460Z,15.77
2023-05-09T13:49:28.011Z,15.64
2023-05-09T13:51:54.921Z,16.40
2023-05-09T13:54:23.097Z,17.60
2023-05-09T13:56:51.433Z,18.37
2023-05-09T13:59:18.312Z,19.43
2023-05-09T14:01:45.025Z,19.90
2023-05-09T14:04:12.050Z,19.35
2023-05-09T14:06:38.652Z,18.70
2023-05-09T14:09:05.236Z,18.21
2023-05-09T14:11:32.007Z,17.75
2023-05-09T14:13:58.630Z,17.26
2023-05-09T14:16:25.490Z,16.74
2023-05-09T14:18:52.477Z,16.35
2023-05-09T14:21:19.679Z,16.05
2023-05-09T14:23:47.264Z,15.78
2023-05-09T14:26:13.948Z,15.65
2023-05-09T14:28:40.741Z,16.11
2023-05-09T14:31:07.550Z,16.23
2023-05-09T14:33:36.102Z,16.29
2023-05-09T14:36:03.103Z,17.02
2023-05-09T14:38:29.820Z,18.02
2023-05-09T14:40:56.747Z,19.38
2023-05-09T14:43:24.342Z,20.29
2023-05-09T14:45:50.902Z,20.89
2023-05-09T14:48:17.486Z,20.65
2023-05-09T14:50:44.157Z,20.05
2023-05-09T14:53:11.252Z,19.25
2023-05-09T14:55:37.866Z,18.55
2023-05-09T14:58:04.402Z,17.99
2023-05-09T15:00:30.983Z,17.54
2023-05-09T15:02:57.931Z,17.02
2023-05-09T15:05:25.089Z,16.57
2023-05-09T15:07:51.717Z,16.17
2023-05-09T15:10:18.566Z,15.84
2023-05-09T15:12:46.730Z,15.58
2023-05-09T15:15:13.425Z,15.35
2023-05-09T15:17:40.034Z,15.25
2023-05-09T15:20:07.215Z,15.15
2023-05-09T15:22:34.649Z,14.99
2023-05-09T15:25:02.000Z,14.84
2023-05-09T15:27:30.616Z,14.72
2023-05-09T15:29:57.423Z,14.58
2023-05-09T15:32:24.093Z,14.45
2023-05-09T15:34:50.668Z,14.39
2023-05-09T15:37:17.939Z,14.35
2023-05-09T15:39:45.662Z,14.28
2023-05-09T15:42:13.203Z,14.25
2023-05-09T15:44:40.237Z,14.19
2023-05-09T15:47:07.437Z,14.09
2023-05-09T15:49:34.544Z,13.98
2023-05-09T15:52:05.130Z,13.91
2023-05-09T15:54:32.186Z,13.83
2023-05-09T15:56:59.371Z,13.84
2023-05-09T15:59:26.157Z,13.77
2023-05-09T16:01:52.783Z,13.72
2023-05-09T16:04:19.433Z,13.74
2023-05-09T16:06:46.090Z,13.85
2023-05-09T16:09:13.483Z,13.93
2023-05-09T16:11:40.865Z,13.85
2023-05-09T16:14:11.747Z,13.76
2023-05-09T16:16:39.469Z,13.68
2023-05-09T16:19:06.510Z,13.64
2023-05-09T16:21:33.469Z,13.55
2023-05-09T16:24:02.923Z,13.43
2023-05-09T16:26:29.501Z,13.29
2023-05-09T16:28:56.231Z,13.15
2023-05-09T16:31:26.397Z,13.05
2023-05-09T16:33:54.119Z,12.96
2023-05-09T16:36:21.130Z,12.93
2023-05-09T16:38:47.691Z,12.86
2023-05-09T16:41:14.329Z,12.73
2023-05-09T16:43:40.941Z,12.64
2023-05-09T16:46:07.562Z,12.50
2023-05-09T16:48:34.399Z,12.35
2023-05-09T16:51:00.982Z,12.23
2023-05-09T16:53:28.043Z,12.13
2023-05-09T16:55:55.076Z,12.03
2023-05-09T16:58:21.701Z,11.94
2023-05-09T17:00:48.488Z,11.86
2023-05-09T17:03:15.237Z,11.77
2023-05-09T17:05:41.908Z,11.73
2023-05-09T17:08:08.806Z,11.68
2023-05-09T17:10:37.772Z,11.65
2023-05-09T17:13:08.518Z,11.60
2023-05-09T17:15:35.642Z,11.61
2023-05-09T17:18:03.177Z,11.58
2023-05-09T17:20:29.993Z,11.51
2023-05-09T17:22:56.906Z,11.45
2023-05-09T17:25:23.621Z,11.39
2023-05-09T17:27:50.251Z,11.32
2023-05-09T17:30:18.342Z,11.24
2023-05-09T17:32:46.174Z,11.18
2023-05-09T17:35:13.742Z,11.14
2023-05-09T17:37:40.963Z,11.11
2023-05-09T17:40:07.995Z,11.03
2023-05-09T17:42:34.572Z,10.99
2023-05-09T17:45:01.406Z,10.92
2023-05-09T17:47:28.934Z,10.91
2023-05-09T17:49:55.738Z,10.93
2023-05-09T17:52:22.405Z,10.92
2023-05-09T17:54:49.165Z,10.91
2023-05-09T17:57:15.852Z,10.84
2023-05-09T17:59:42.411Z,10.80
2023-05-09T18:02:09.100Z,10.73
2023-05-09T18:04:35.938Z,10.68
2023-05-09T18:07:02.719Z,10.64
2023-05-09T18:09:29.375Z,10.61
2023-05-09T18:11:56.044Z,10.57
2023-05-09T18:14:22.666Z,10.53
2023-05-09T18:16:49.649Z,10.47
2023-05-09T18:19:16.255Z,10.42
2023-05-09T18:21:42.865Z,10.35
2023-05-09T18:24:09.479Z,10.29
2023-05-09T18:26:36.364Z,10.27
2023-05-09T18:29:03.067Z,10.27
2023-05-09T18:31:31.460Z,10.26
2023-05-09T18:33:58.202Z,10.27
2023-05-09T18:36:24.780Z,10.23
2023-05-09T18:38:51.458Z,10.17
2023-05-09T18:41:18.063Z,10.10
2023-05-09T18:43:46.007Z,10.04
2023-05-09T18:46:21.330Z,10.01
2023-05-09T18:48:50.261Z,9.96
2023-05-09T18:51:17.622Z,9.91
2023-05-09T18:53:44.466Z,9.88
2023-05-09T18:56:11.166Z,9.91
2023-05-09T18:58:38.189Z,9.93
2023-05-09T19:01:05.141Z,9.90
2023-05-09T19:03:32.052Z,9.93
2023-05-09T19:05:59.325Z,9.92
2023-05-09T19:08:26.348Z,9.94
2023-05-09T19:10:52.944Z,9.92
2023-05-09T19:13:19.623Z,9.86
2023-05-09T19:15:47.478Z,9.87
2023-05-09T19:18:14.391Z,9.83
2023-05-09T19:20:41.051Z,9.81
2023-05-09T19:23:07.835Z,9.79
2023-05-09T19:25:36.312Z,9.72
2023-05-09T19:28:04.196Z,9.65
2023-05-09T19:30:31.212Z,9.59
2023-05-09T19:32:57.930Z,9.51
2023-05-09T19:35:24.565Z,9.45
2023-05-09T19:37:51.197Z,9.42
2023-05-09T19:40:18.132Z,9.36
2023-05-09T19:42:44.752Z,9.31
2023-05-09T19:45:11.621Z,9.27
2023-05-09T19:47:38.217Z,9.26
2023-05-09T19:50:05.062Z,9.24
2023-05-09T19:52:31.799Z,9.22
2023-05-09T19:54:58.387Z,9.21
2023-05-09T19:57:24.940Z,9.21
2023-05-09T19:59:52.308Z,9.20
2023-05-09T20:02:18.933Z,9.21
2023-05-09T20:04:49.717Z,9.21
2023-05-09T20:07:17.117Z,9.21
2023-05-09T20:09:43.743Z,9.22
2023-05-09T20:12:13.281Z,9.20
2023-05-09T20:14:39.921Z,9.21
2023-05-09T20:17:06.583Z,9.22
2023-05-09T20:19:33.239Z,9.22
2023-05-09T20:22:00.721Z,9.25
2023-05-09T20:24:27.847Z,9.26
2023-05-09T20:26:56.958Z,9.30
2023-05-09T20:29:24.079Z,9.28
2023-05-09T20:31:50.698Z,9.31
2023-05-09T20:34:19.697Z,9.33
2023-05-09T20:36:46.900Z,9.35
2023-05-09T20:39:17.630Z,9.34
2023-05-09T20:41:48.197Z,9.33
2023-05-09T20:44:15.512Z,9.35
2023-05-09T20:46:42.257Z,9.40
2023-05-09T20:49:09.355Z,9.43
2023-05-09T20:51:35.936Z,9.50
2023-05-09T20:54:02.814Z,9.51
2023-05-09T20:56:29.486Z,9.52
2023-05-09T20:58:56.682Z,9.55
2023-05-09T21:01:23.531Z,9.54
2023-05-09T21:03:50.141Z,9.48
2023-05-09T21:06:16.728Z,9.42
2023-05-09T21:08:43.461Z,9.34
2023-05-09T21:11:10.010Z,9.28
2023-05-09T21:13:37.289Z,9.20
2023-05-09T21:16:03.975Z,9.12
2023-05-09T21:18:30.582Z,9.03
2023-05-09T21:20:57.335Z,8.97
2023-05-09T21:23:23.927Z,8.91
2023-05-09T21:25:50.552Z,8.87
2023-05-09T21:28:17.412Z,8.83
2023-05-09T21:30:44.023Z,8.80
2023-05-09T21:33:10.859Z,8.82
2023-05-09T21:35:37.500Z,8.84
2023-05-09T21:38:04.087Z,8.86
2023-05-09T21:40:30.699Z,8.87
2023-05-09T21:42:57.300Z,8.86
2023-05-09T21:45:23.887Z,8.90
2023-05-09T21:47:50.796Z,8.92
2023-05-09T21:50:17.770Z,9.06
2023-05-09T21:52:44.540Z,9.10
2023-05-09T21:55:11.123Z,9.11
2023-05-09T21:57:37.744Z,9.14
2023-05-09T22:00:05.705Z,9.15
2023-05-09T22:02:34.163Z,9.15
2023-05-09T22:05:01.166Z,9.24
2023-05-09T22:07:27.794Z,9.23
2023-05-09T22:09:54.332Z,9.11
2023-05-09T22:12:21.446Z,9.12
2023-05-09T22:14:55.861Z,9.26
2023-05-09T22:17:23.089Z,9.38
2023-05-09T22:19:49.718Z,9.45
2023-05-09T22:22:16.282Z,9.49
2023-05-09T22:24:42.868Z,9.51
2023-05-09T22:27:09.914Z,9.57
2023-05-09T22:29:36.832Z,9.58
2023-05-09T22:32:03.690Z,9.59
2023-05-09T22:34:31.107Z,9.57
2023-05-09T22:36:57.671Z,9.57
2023-05-09T22:39:24.295Z,9.54
2023-05-09T22:41:50.897Z,9.56
2023-05-09T22:44:17.479Z,9.56
2023-05-09T22:46:44.057Z,9.56
2023-05-09T22:49:10.903Z,9.56
2023-05-09T22:51:37.524Z,9.60
2023-05-09T22:54:04.054Z,9.63
2023-05-09T22:56:30.635Z,9.66
2023-05-09T22:58:57.152Z,9.66
2023-05-09T23:01:23.771Z,9.62
2023-05-09T23:03:50.779Z,9.62
2023-05-09T23:06:17.323Z,9.67
2023-05-09T23:08:44.009Z,9.67
2023-05-09T23:11:10.649Z,9.64
2023-05-09T23:13:37.188Z,9.62
2023-05-09T23:16:03.855Z,9.63
2023-05-09T23:18:31.049Z,9.68
2023-05-09T23:20:57.590Z,9.67
2023-05-09T23:23:24.211Z,9.69
2023-05-09T23:25:50.826Z,9.64
2023-05-09T23:28:17.414Z,9.64
2023-05-09T23:30:44.027Z,9.61
2023-05-09T23:33:10.574Z,9.58
2023-05-09T23:35:37.126Z,9.58
2023-05-09T23:38:04.677Z,9.62
2023-05-09T23:40:31.323Z,9.58
2023-05-09T23:42:57.964Z,9.57
2023-05-09T23:45:24.643Z,9.43
2023-05-09T23:47:51.167Z,9.19
2023-05-09T23:50:17.952Z,8.97
2023-05-09T23:52:44.906Z,8.81
2023-05-09T23:55:11.597Z,8.95
2023-05-09T23:57:38.427Z,9.03
